Mutton Bay, Canada
Current Conditions -  °F | °C
As of 1:00 AM on Thursday 27 Nov 2014 (Local Time) from CWDH Reporting Station
Broken Clouds Broken Clouds  
Wind Chill: 29°   Ceiling: 2500
Heat Index: 29°   Visibility: 9mi
Dew Point: 20°   Wind: 2mph
Humidity: 67%   Direction: 90°E
Pressure: 30.09"   Gusts: NA
Location:  50.78°N, 59.02°W
Report Text: CWDH 270500Z AUTO 09002KT 9SM BKN025 M01/M07 A3009 RMK SLP191 T10141068 WSI/SWOB
Loading
Personal Weather Stations






























Interactive Weather Map New forecast layout! Learn more

10-Day Weather Forecast

Advertisements
Track Severe Weather on mobile